createdAt,value
2019-01-15T00:01:54.777Z,88.53
2019-01-15T00:04:22.306Z,88.45
2019-01-15T00:06:49.730Z,89.00
2019-01-15T00:09:17.178Z,89.44
2019-01-15T00:11:44.630Z,89.04
2019-01-15T00:14:12.052Z,89.08
2019-01-15T00:16:39.571Z,89.46
2019-01-15T00:19:07.093Z,89.11
2019-01-15T00:21:34.662Z,89.11
2019-01-15T00:24:02.096Z,88.90
2019-01-15T00:26:29.664Z,88.71
2019-01-15T00:28:57.099Z,89.05
2019-01-15T00:31:24.540Z,89.10
2019-01-15T00:33:52.033Z,89.25
2019-01-15T00:36:19.450Z,89.51
2019-01-15T00:38:46.914Z,89.08
2019-01-15T00:41:14.346Z,88.17
2019-01-15T00:43:41.781Z,88.21
2019-01-15T00:46:09.240Z,89.00
2019-01-15T00:48:36.680Z,89.10
2019-01-15T00:51:05.106Z,89.41
2019-01-15T00:53:32.567Z,89.56
2019-01-15T00:56:00.033Z,89.42
2019-01-15T00:58:27.554Z,90.29
2019-01-15T01:00:55.130Z,90.28
2019-01-15T01:03:22.649Z,90.18
2019-01-15T01:05:50.192Z,89.99
2019-01-15T01:08:17.754Z,90.29
2019-01-15T01:10:45.172Z,89.77
2019-01-15T01:13:12.612Z,89.94
2019-01-15T01:15:41.303Z,89.54
2019-01-15T01:18:08.977Z,89.21
2019-01-15T01:20:37.199Z,88.59
2019-01-15T01:23:03.891Z,88.27
2019-01-15T01:25:31.323Z,87.86
2019-01-15T01:27:58.745Z,88.42
2019-01-15T01:30:26.175Z,88.50
2019-01-15T01:32:53.609Z,88.37
2019-01-15T01:35:21.070Z,88.14
2019-01-15T01:37:48.518Z,88.01
2019-01-15T01:40:16.022Z,88.82
2019-01-15T01:42:43.468Z,87.93
2019-01-15T01:45:10.904Z,87.83
2019-01-15T01:47:38.326Z,87.93
2019-01-15T01:50:06.781Z,87.78
2019-01-15T01:52:34.397Z,87.84
2019-01-15T01:55:01.846Z,88.29
2019-01-15T01:57:29.279Z,88.84
2019-01-15T01:59:56.719Z,88.86
2019-01-15T02:02:24.152Z,88.77
2019-01-15T02:04:51.700Z,89.52
2019-01-15T02:07:19.111Z,89.78
2019-01-15T02:09:46.546Z,90.32
2019-01-15T02:12:14.018Z,89.93
2019-01-15T02:14:41.444Z,89.94
2019-01-15T02:17:08.871Z,90.13
2019-01-15T02:19:36.324Z,90.53
2019-01-15T02:22:03.793Z,91.01
2019-01-15T02:24:32.246Z,91.04
2019-01-15T02:26:59.747Z,90.76
2019-01-15T02:29:27.211Z,90.59
2019-01-15T02:31:54.667Z,90.45
2019-01-15T02:34:22.093Z,90.67
2019-01-15T02:36:49.528Z,90.61
2019-01-15T02:39:16.992Z,90.42
2019-01-15T02:41:44.449Z,89.82
2019-01-15T02:44:11.893Z,90.28
2019-01-15T02:46:39.323Z,90.34
2019-01-15T02:49:06.847Z,90.37
2019-01-15T02:51:34.232Z,91.14
2019-01-15T02:54:01.686Z,91.62
2019-01-15T02:56:29.127Z,91.62
2019-01-15T02:58:56.592Z,91.48
2019-01-15T03:01:24.025Z,91.57
2019-01-15T03:03:51.487Z,91.97
2019-01-15T03:06:18.915Z,92.26
2019-01-15T03:08:46.347Z,92.07
2019-01-15T03:11:13.799Z,91.68
2019-01-15T03:13:41.227Z,91.93
2019-01-15T03:16:08.695Z,92.04
2019-01-15T03:18:36.139Z,92.05
2019-01-15T03:21:03.599Z,92.91
2019-01-15T03:23:31.290Z,92.33
2019-01-15T03:25:58.786Z,92.67
2019-01-15T03:28:26.221Z,92.65
2019-01-15T03:30:53.663Z,92.59
2019-01-15T03:33:21.254Z,92.54
2019-01-15T03:35:48.662Z,92.45
2019-01-15T03:38:16.088Z,92.77
2019-01-15T03:40:43.694Z,92.74
2019-01-15T03:43:11.111Z,92.78
2019-01-15T03:45:38.548Z,92.60
2019-01-15T03:48:05.994Z,92.76
2019-01-15T03:50:33.458Z,92.95
2019-01-15T03:53:01.644Z,92.94
2019-01-15T03:55:29.095Z,92.68
2019-01-15T03:57:56.549Z,92.55
2019-01-15T04:00:23.982Z,92.54
2019-01-15T04:02:51.566Z,92.20
2019-01-15T04:05:20.060Z,92.55
2019-01-15T04:07:47.573Z,92.60
2019-01-15T04:10:15.038Z,92.70
2019-01-15T04:12:42.496Z,92.93
2019-01-15T04:15:09.958Z,92.53
2019-01-15T04:17:37.397Z,92.73
2019-01-15T04:20:06.302Z,92.91
2019-01-15T04:22:33.756Z,92.97
2019-01-15T04:25:01.924Z,93.17
2019-01-15T04:27:29.372Z,93.61
2019-01-15T04:29:56.824Z,93.46
2019-01-15T04:32:24.268Z,93.65
2019-01-15T04:34:51.733Z,93.58
2019-01-15T04:37:19.182Z,93.18
2019-01-15T04:39:46.627Z,93.42
2019-01-15T04:42:14.063Z,93.16
2019-01-15T04:44:41.622Z,92.77
2019-01-15T04:47:09.552Z,92.62
2019-01-15T04:49:36.982Z,92.16
2019-01-15T04:52:04.413Z,92.08
2019-01-15T04:54:32.084Z,92.01
2019-01-15T04:56:59.555Z,92.05
2019-01-15T04:59:26.993Z,92.27
2019-01-15T05:01:54.442Z,92.20
2019-01-15T05:04:21.863Z,92.33
2019-01-15T05:06:49.323Z,92.23
2019-01-15T05:09:16.792Z,92.27
2019-01-15T05:11:44.244Z,92.28
2019-01-15T05:14:11.693Z,92.10
2019-01-15T05:16:39.155Z,92.12
2019-01-15T05:19:06.598Z,91.82
2019-01-15T05:21:34.032Z,91.18
2019-01-15T05:24:02.346Z,91.35
2019-01-15T05:26:29.775Z,91.97
2019-01-15T05:28:57.237Z,92.25
2019-01-15T05:31:24.723Z,92.57
2019-01-15T05:33:52.183Z,92.88
2019-01-15T05:36:19.622Z,92.24
2019-01-15T05:38:47.092Z,92.07
2019-01-15T05:41:14.519Z,92.19
2019-01-15T05:43:41.934Z,92.73
2019-01-15T05:46:09.398Z,92.99
2019-01-15T05:48:36.837Z,93.12
2019-01-15T05:51:08.817Z,93.12
2019-01-15T05:53:36.275Z,93.12
2019-01-15T05:56:03.692Z,92.81
2019-01-15T05:58:31.154Z,93.50
2019-01-15T06:00:58.597Z,92.77
2019-01-15T06:03:26.028Z,92.92
2019-01-15T06:05:53.495Z,92.93
2019-01-15T06:08:20.922Z,92.96
2019-01-15T06:10:48.363Z,93.43
2019-01-15T06:13:15.795Z,92.82
2019-01-15T06:15:43.268Z,93.16
2019-01-15T06:18:10.717Z,93.33
2019-01-15T06:20:38.190Z,93.13
2019-01-15T06:23:05.629Z,93.11
2019-01-15T06:25:33.049Z,92.77
2019-01-15T06:28:00.518Z,93.02
2019-01-15T06:30:27.961Z,92.56
2019-01-15T06:32:55.425Z,92.83
2019-01-15T06:35:22.872Z,93.27
2019-01-15T06:37:51.456Z,93.46
2019-01-15T06:40:17.812Z,93.05
2019-01-15T06:42:45.262Z,93.46
2019-01-15T06:45:30.573Z,93.27
2019-01-15T06:47:58.002Z,93.17
2019-01-15T06:50:25.479Z,93.36
2019-01-15T06:52:52.891Z,93.40
2019-01-15T06:55:20.386Z,93.36
2019-01-15T06:57:47.839Z,93.12
2019-01-15T07:00:20.887Z,93.07
2019-01-15T07:02:49.345Z,92.75
2019-01-15T07:05:16.930Z,93.47
2019-01-15T07:07:44.385Z,93.29
2019-01-15T07:10:12.623Z,93.39
2019-01-15T07:12:40.084Z,92.89
2019-01-15T07:15:07.527Z,92.95
2019-01-15T07:17:34.972Z,92.85
2019-01-15T07:20:03.345Z,93.04
2019-01-15T07:22:30.791Z,93.04
2019-01-15T07:24:59.618Z,92.99
2019-01-15T07:27:27.212Z,92.93
2019-01-15T07:32:32.665Z,93.14
2019-01-15T07:35:00.177Z,93.14
2019-01-15T07:37:28.687Z,93.09
2019-01-15T07:39:56.132Z,93.04
2019-01-15T07:42:23.556Z,92.87
2019-01-15T07:44:51.108Z,93.00
2019-01-15T07:47:18.567Z,92.82
2019-01-15T07:49:46.754Z,93.16
2019-01-15T07:52:14.199Z,92.80
2019-01-15T07:54:41.651Z,92.94
2019-01-15T07:57:09.207Z,93.00
2019-01-15T07:59:36.712Z,92.91
2019-01-15T08:02:04.211Z,93.32
2019-01-15T08:04:31.681Z,93.20
2019-01-15T08:06:59.208Z,93.00
2019-01-15T08:09:26.721Z,92.97
2019-01-15T08:11:55.888Z,92.65
2019-01-15T08:14:23.353Z,92.25
2019-01-15T08:16:50.872Z,91.98
2019-01-15T08:19:18.444Z,92.18
2019-01-15T08:21:47.007Z,92.32
2019-01-15T08:24:14.476Z,92.23
2019-01-15T08:26:42.060Z,91.98
2019-01-15T08:29:09.510Z,92.17
2019-01-15T08:31:37.465Z,92.44
2019-01-15T08:34:04.948Z,92.08
2019-01-15T08:36:32.465Z,92.33
2019-01-15T08:39:00.043Z,92.16
2019-01-15T08:41:27.478Z,91.91
2019-01-15T08:43:55.616Z,91.74
2019-01-15T08:46:23.162Z,91.87
2019-01-15T08:48:50.623Z,91.86
2019-01-15T08:51:18.064Z,91.84
2019-01-15T08:53:45.559Z,91.96
2019-01-15T08:56:13.204Z,91.83
2019-01-15T08:58:41.755Z,91.68
2019-01-15T09:01:09.471Z,91.46
2019-01-15T09:03:37.819Z,91.89
2019-01-15T09:06:05.347Z,92.15
2019-01-15T09:08:32.897Z,92.26
2019-01-15T09:11:00.405Z,92.28
2019-01-15T09:13:28.636Z,92.03
2019-01-15T09:15:57.424Z,92.15
2019-01-15T09:18:24.974Z,92.19
2019-01-15T09:20:53.238Z,92.32
2019-01-15T09:23:21.289Z,91.96
2019-01-15T09:25:48.799Z,91.95
2019-01-15T09:28:17.254Z,92.12
2019-01-15T09:30:44.712Z,92.15
2019-01-15T09:33:12.210Z,91.98
2019-01-15T09:35:39.627Z,92.02
2019-01-15T09:38:07.048Z,91.82
2019-01-15T09:40:34.604Z,91.59
2019-01-15T09:43:02.036Z,91.34
2019-01-15T09:45:29.515Z,91.11
2019-01-15T09:48:06.542Z,91.17
2019-01-15T09:50:34.568Z,91.15
2019-01-15T09:53:02.002Z,91.15
2019-01-15T09:55:29.484Z,91.03
2019-01-15T09:57:56.907Z,90.94
2019-01-15T10:00:24.375Z,91.12
2019-01-15T10:02:51.833Z,91.01
2019-01-15T10:05:19.266Z,90.87
2019-01-15T10:07:46.714Z,90.67
2019-01-15T10:10:14.538Z,90.50
2019-01-15T10:12:41.976Z,90.11
2019-01-15T10:15:10.268Z,89.72
2019-01-15T10:17:37.777Z,89.50
2019-01-15T10:20:06.835Z,89.31
2019-01-15T10:22:34.807Z,88.69
2019-01-15T10:25:02.288Z,88.81
2019-01-15T10:27:29.749Z,88.93
2019-01-15T10:29:59.238Z,88.82
2019-01-15T10:32:30.660Z,88.59
2019-01-15T10:34:58.126Z,88.17
2019-01-15T10:37:25.576Z,88.26
2019-01-15T10:39:53.016Z,87.99
2019-01-15T10:42:20.465Z,87.88
2019-01-15T10:44:48.764Z,87.73
2019-01-15T10:47:15.382Z,87.81
2019-01-15T10:49:42.823Z,88.11
2019-01-15T10:52:10.270Z,88.12
2019-01-15T10:54:37.718Z,88.23
2019-01-15T10:57:05.235Z,88.24
2019-01-15T10:59:32.671Z,88.40
2019-01-15T11:02:00.137Z,88.16
2019-01-15T11:04:27.554Z,88.65
2019-01-15T11:06:56.515Z,88.44
2019-01-15T11:09:24.017Z,88.87
2019-01-15T11:11:51.470Z,88.86
2019-01-15T11:14:18.897Z,88.90
2019-01-15T11:16:46.350Z,88.47
2019-01-15T11:19:13.780Z,88.64
2019-01-15T11:21:41.235Z,88.25
2019-01-15T11:24:08.682Z,88.45
2019-01-15T11:26:36.118Z,88.54
2019-01-15T11:29:04.936Z,88.76
2019-01-15T11:31:32.471Z,88.33
2019-01-15T11:33:59.961Z,88.03
2019-01-15T11:36:27.408Z,88.16
2019-01-15T11:38:54.940Z,88.50
2019-01-15T11:41:22.351Z,88.25
2019-01-15T11:43:49.810Z,88.09
2019-01-15T11:46:17.260Z,88.22
2019-01-15T11:48:44.780Z,88.14
2019-01-15T11:51:12.237Z,88.05
2019-01-15T11:53:39.697Z,87.33
2019-01-15T11:56:07.131Z,87.39
2019-01-15T11:58:34.586Z,87.04
2019-01-15T12:01:02.023Z,87.05
2019-01-15T12:03:29.484Z,86.61
2019-01-15T12:06:16.563Z,86.71
2019-01-15T12:08:44.834Z,86.71
2019-01-15T12:11:17.736Z,86.35
2019-01-15T12:14:00.843Z,86.21
2019-01-15T12:16:46.900Z,86.03
2019-01-15T12:19:16.721Z,86.02
2019-01-15T12:21:44.856Z,86.02
2019-01-15T12:24:27.963Z,86.55
2019-01-15T12:27:12.087Z,86.99
2019-01-15T12:29:45.522Z,87.37
2019-01-15T12:32:15.512Z,87.37
2019-01-15T12:35:01.860Z,87.84
2019-01-15T12:37:45.080Z,88.02
2019-01-15T12:40:27.412Z,88.63
2019-01-15T12:43:10.425Z,88.51
2019-01-15T12:45:39.238Z,89.40
2019-01-15T12:48:12.105Z,89.19
2019-01-15T12:50:39.584Z,89.03
2019-01-15T12:53:09.796Z,89.70
2019-01-15T12:55:52.114Z,89.64
2019-01-15T12:58:20.325Z,90.04
2019-01-15T13:00:48.298Z,88.98
2019-01-15T13:03:21.303Z,88.59
2019-01-15T13:05:51.634Z,87.72
2019-01-15T13:08:22.549Z,87.33
2019-01-15T13:10:52.359Z,87.16
2019-01-15T13:13:22.264Z,86.87
2019-01-15T13:15:55.198Z,86.44
2019-01-15T13:18:39.396Z,86.09
2019-01-15T13:21:12.430Z,85.96
2019-01-15T13:23:49.744Z,85.61
2019-01-15T13:26:17.195Z,85.55
2019-01-15T13:28:52.148Z,85.21
2019-01-15T13:31:25.297Z,85.13
2019-01-15T13:33:57.033Z,85.08
2019-01-15T13:36:44.241Z,84.85
2019-01-15T13:39:26.552Z,84.74
2019-01-15T13:41:54.008Z,84.48
2019-01-15T13:44:27.285Z,84.79
2019-01-15T13:47:09.375Z,84.27
2019-01-15T13:49:37.086Z,84.22
2019-01-15T13:52:08.251Z,84.09
2019-01-15T13:54:36.556Z,84.09
2019-01-15T13:57:07.487Z,84.75
2019-01-15T13:59:37.241Z,84.97
2019-01-15T14:02:11.148Z,84.60
2019-01-15T14:04:39.503Z,84.70
2019-01-15T14:07:07.613Z,85.26
2019-01-15T14:09:53.640Z,86.53
2019-01-15T14:12:21.558Z,87.46
2019-01-15T14:14:51.946Z,88.31
2019-01-15T14:17:34.144Z,88.79
2019-01-15T14:20:08.251Z,89.19
2019-01-15T14:22:50.507Z,89.73
2019-01-15T14:25:21.353Z,90.27
2019-01-15T14:27:50.722Z,90.47
2019-01-15T14:30:36.114Z,90.56
2019-01-15T14:33:19.439Z,91.29
2019-01-15T14:35:47.842Z,91.27
2019-01-15T14:38:30.214Z,91.49
2019-01-15T14:41:03.386Z,91.67
2019-01-15T14:43:35.831Z,91.70
2019-01-15T14:46:05.544Z,91.67
2019-01-15T14:48:33.962Z,91.01
2019-01-15T14:51:06.998Z,90.81
2019-01-15T14:53:51.674Z,91.09
2019-01-15T14:56:20.135Z,90.66
2019-01-15T14:58:48.379Z,90.61
2019-01-15T15:01:35.518Z,90.72
2019-01-15T15:04:18.639Z,90.55
2019-01-15T15:06:48.016Z,89.95
2019-01-15T15:09:19.429Z,90.13
2019-01-15T15:11:49.738Z,90.02
2019-01-15T15:14:28.004Z,89.85
2019-01-15T15:16:56.350Z,89.98
2019-01-15T15:19:43.679Z,89.62
2019-01-15T15:22:31.912Z,89.90
2019-01-15T15:25:10.078Z,89.72
2019-01-15T15:27:48.619Z,89.52
2019-01-15T15:30:26.937Z,89.50
2019-01-15T15:32:59.841Z,89.33
2019-01-15T15:35:42.249Z,89.32
2019-01-15T15:38:24.561Z,89.01
2019-01-15T15:40:52.426Z,89.42
2019-01-15T15:43:20.774Z,89.84
2019-01-15T15:46:03.119Z,89.97
2019-01-15T15:48:45.526Z,89.78
2019-01-15T15:51:16.503Z,89.79
2019-01-15T15:53:59.606Z,89.20
2019-01-15T15:56:29.747Z,88.79
2019-01-15T15:59:02.868Z,88.74
2019-01-15T16:01:35.803Z,88.94
2019-01-15T16:04:08.949Z,88.44
2019-01-15T16:06:53.215Z,88.28
2019-01-15T16:09:22.606Z,88.17
2019-01-15T16:11:50.866Z,87.96
2019-01-15T16:14:21.992Z,87.87
2019-01-15T16:17:04.335Z,87.85
2019-01-15T16:19:37.365Z,87.96
2019-01-15T16:22:24.690Z,87.59
2019-01-15T16:24:53.304Z,87.96
2019-01-15T16:27:21.204Z,88.13
2019-01-15T16:30:00.438Z,87.80
2019-01-15T16:32:28.839Z,87.75
2019-01-15T16:35:01.725Z,88.03
2019-01-15T16:37:29.571Z,87.92
2019-01-15T16:40:02.846Z,87.55
2019-01-15T16:42:31.089Z,87.04
2019-01-15T16:44:58.586Z,87.26
2019-01-15T16:47:28.454Z,87.65
2019-01-15T16:49:55.931Z,87.67
2019-01-15T16:52:28.882Z,87.60
2019-01-15T16:55:15.141Z,87.41
2019-01-15T16:57:45.944Z,87.69
2019-01-15T17:00:18.972Z,87.59
2019-01-15T17:02:46.403Z,87.07
2019-01-15T17:05:29.540Z,87.27
2019-01-15T17:08:12.826Z,87.45
2019-01-15T17:10:47.341Z,87.76
2019-01-15T17:13:20.484Z,87.69
2019-01-15T17:16:01.792Z,88.02
2019-01-15T17:18:45.089Z,87.99
2019-01-15T17:21:13.054Z,87.94
2019-01-15T17:23:55.457Z,87.83
2019-01-15T17:26:29.418Z,87.57
2019-01-15T17:28:57.668Z,87.80
2019-01-15T17:31:44.978Z,87.67
2019-01-15T17:34:17.915Z,87.87
2019-01-15T17:37:01.144Z,87.87
2019-01-15T17:39:29.546Z,87.91
2019-01-15T17:42:02.017Z,87.95
2019-01-15T17:44:34.983Z,88.06
2019-01-15T17:47:19.110Z,88.14
2019-01-15T17:49:52.237Z,88.10
2019-01-15T17:52:34.584Z,88.39
2019-01-15T17:55:02.808Z,88.51
2019-01-15T17:57:38.674Z,88.28
2019-01-15T18:00:11.758Z,88.41
2019-01-15T18:02:41.125Z,88.12
2019-01-15T18:05:14.727Z,88.33
2019-01-15T18:07:59.908Z,88.47
2019-01-15T18:10:43.097Z,88.30
2019-01-15T18:13:16.129Z,88.27
2019-01-15T18:15:53.523Z,88.09
2019-01-15T18:18:26.641Z,88.14
2019-01-15T18:21:01.637Z,88.11
2019-01-15T18:23:41.708Z,88.00
2019-01-15T18:26:14.904Z,88.09
2019-01-15T18:28:59.188Z,87.90
2019-01-15T18:31:33.008Z,87.84
2019-01-15T18:34:16.212Z,88.09
2019-01-15T18:37:02.764Z,88.34
2019-01-15T18:39:35.784Z,87.97
2019-01-15T18:42:22.061Z,88.01
2019-01-15T18:45:02.379Z,87.97
2019-01-15T18:47:41.713Z,88.00
2019-01-15T18:50:12.104Z,87.93
2019-01-15T18:52:43.227Z,87.52
2019-01-15T18:55:27.517Z,87.61
2019-01-15T18:58:14.717Z,87.60
2019-01-15T19:00:57.036Z,87.84
2019-01-15T19:03:30.873Z,87.69
2019-01-15T19:06:00.886Z,87.48
2019-01-15T19:08:31.747Z,87.47
2019-01-15T19:11:14.120Z,87.41
2019-01-15T19:13:45.083Z,87.27
2019-01-15T19:16:12.536Z,87.35
2019-01-15T19:18:45.566Z,87.14
2019-01-15T19:21:14.739Z,87.13
2019-01-15T19:23:43.001Z,86.87
2019-01-15T19:26:29.799Z,86.44
2019-01-15T19:29:02.871Z,86.85
2019-01-15T19:31:46.019Z,86.84
2019-01-15T19:34:19.171Z,86.61
2019-01-15T19:36:46.677Z,86.63
2019-01-15T19:39:29.853Z,86.50
2019-01-15T19:42:02.900Z,86.55
2019-01-15T19:44:31.757Z,86.70
2019-01-15T19:47:00.585Z,86.50
2019-01-15T19:49:33.774Z,86.23
2019-01-15T19:52:03.151Z,86.11
2019-01-15T19:54:44.228Z,86.14
2019-01-15T19:57:16.252Z,85.73
2019-01-15T19:59:54.649Z,86.07
2019-01-15T20:02:23.030Z,86.44
2019-01-15T20:04:55.295Z,86.15
2019-01-15T20:07:28.337Z,86.01
2019-01-15T20:09:55.779Z,85.83
2019-01-15T20:12:38.740Z,86.17
2019-01-15T20:15:11.892Z,86.28
2019-01-15T20:17:39.320Z,86.22
2019-01-15T20:20:07.054Z,85.97
2019-01-15T20:22:37.415Z,85.75
2019-01-15T20:25:04.880Z,85.51
2019-01-15T20:27:34.834Z,85.81
2019-01-15T20:30:14.360Z,86.18
2019-01-15T20:32:57.567Z,86.23
2019-01-15T20:35:36.721Z,86.35
2019-01-15T20:38:10.690Z,86.59
2019-01-15T20:40:40.525Z,86.24
2019-01-15T20:43:10.432Z,85.77
2019-01-15T20:45:43.609Z,86.33
2019-01-15T20:48:17.745Z,86.82
2019-01-15T20:50:46.503Z,86.65
2019-01-15T20:53:19.754Z,86.77
2019-01-15T20:58:49.446Z,87.02
2019-01-15T21:01:22.658Z,87.52
2019-01-15T21:03:52.853Z,87.43
2019-01-15T21:06:24.278Z,87.26
2019-01-15T21:08:56.767Z,87.11
2019-01-15T21:11:39.888Z,87.60
2019-01-15T21:14:23.052Z,87.10
2019-01-15T21:16:51.439Z,87.02
2019-01-15T21:19:29.644Z,87.12
2019-01-15T21:22:18.455Z,87.48
2019-01-15T21:24:49.397Z,87.35
2019-01-15T21:27:34.225Z,86.98
2019-01-15T21:30:02.655Z,86.95
2019-01-15T21:32:36.423Z,87.26
2019-01-15T21:35:20.018Z,87.25
2019-01-15T21:37:50.308Z,87.29
2019-01-15T21:40:33.601Z,87.59
2019-01-15T21:43:08.520Z,87.64
2019-01-15T21:45:41.483Z,87.38
2019-01-15T21:48:23.544Z,87.38
2019-01-15T21:50:59.040Z,87.60
2019-01-15T21:53:33.116Z,87.61
2019-01-15T21:56:02.750Z,87.74
2019-01-15T21:58:41.463Z,87.46
2019-01-15T22:01:14.531Z,87.44
2019-01-15T22:03:54.074Z,87.59
2019-01-15T22:06:23.503Z,87.58
2019-01-15T22:08:52.992Z,87.38
2019-01-15T22:11:32.486Z,87.30
2019-01-15T22:14:17.645Z,87.20
2019-01-15T22:16:51.744Z,87.79
2019-01-15T22:19:19.616Z,87.65
2019-01-15T22:22:03.072Z,87.65
2019-01-15T22:24:31.356Z,87.78
2019-01-15T22:27:00.593Z,88.06
2019-01-15T22:29:33.687Z,88.33
2019-01-15T22:32:12.986Z,88.16
2019-01-15T22:34:46.123Z,88.20
2019-01-15T22:37:15.927Z,88.33
2019-01-15T22:39:47.864Z,88.42
2019-01-15T22:42:26.822Z,88.59
2019-01-15T22:45:04.183Z,88.55
2019-01-15T22:47:54.932Z,88.68
2019-01-15T22:50:34.895Z,88.67
2019-01-15T22:53:07.940Z,88.61
2019-01-15T22:55:39.248Z,88.75
2019-01-15T22:58:22.222Z,88.78
2019-01-15T23:00:55.191Z,88.82
2019-01-15T23:03:28.319Z,89.28
2019-01-15T23:06:05.698Z,89.05
2019-01-15T23:08:52.990Z,89.20
2019-01-15T23:11:26.338Z,89.32
2019-01-15T23:14:08.752Z,89.19
2019-01-15T23:16:37.151Z,89.40
2019-01-15T23:19:07.037Z,88.61
2019-01-15T23:21:36.436Z,89.03
2019-01-15T23:24:15.813Z,89.13
2019-01-15T23:26:47.274Z,89.43
2019-01-15T23:29:15.627Z,89.46
2019-01-15T23:31:44.597Z,89.59
2019-01-15T23:34:15.142Z,89.44
2019-01-15T23:37:01.706Z,89.36
2019-01-15T23:39:30.871Z,89.72
2019-01-15T23:41:59.064Z,89.68
2019-01-15T23:44:28.837Z,89.45
2019-01-15T23:47:14.002Z,89.38
2019-01-15T23:49:44.308Z,89.23
2019-01-15T23:52:12.505Z,89.45
2019-01-15T23:54:45.641Z,89.50
2019-01-15T23:57:28.903Z,89.47
2019-01-15T23:59:58.313Z,89.36
